Hesper, North Dakota
Current Conditions -  °F | °C
As of 10:15 AM on Monday 24 Nov 2014 (Local Time) from K5H4 Reporting Station
Clear Clear  
Wind Chill: -9°   Ceiling: Unl
Heat Index:   Visibility: 10mi
Dew Point:   Wind: 16mph
Humidity: 79%   Direction: 310°NW
Pressure: 29.88"   Gusts: NA
Location:  47.9341°N, 99.5547°W
Report Text: K5H4 241615Z AUTO 31014KT 10SM CLR M13/M16 A2988 RMK AO2
Loading
Personal Weather Stations






























Interactive Weather Map New forecast layout! Learn more

10-Day Weather Forecast

Advertisements
Track Severe Weather on mobile